Time;durP1;ratioP1;P1;durP2;ratioP2;P2;SDS_P1;SDS_P2;PMS_P1;PMS_P2;Temp;Humidity;BMP_temperature;BMP_pressure;BME280_temperature;BME280_humidity;BME280_pressure;Samples;Min_cycle;Max_cycle;Signal;HPM_P1;HPM_P2
2022/10/02 00:01:34;;;;;;;4.82;1.75;;;;;;;;;;5110772;27;21095;-78
2022/10/02 00:04:00;;;;;;;2.85;1.50;;;;;;;;;;5115870;27;20034;-78
2022/10/02 00:06:29;;;;;;;2.13;1.60;;;;;;;;;;5103430;27;21077;-76
2022/10/02 00:08:58;;;;;;;2.45;1.23;;;;;;;;;;5097203;27;20031;-78
2022/10/02 00:11:30;;;;;;;3.92;1.38;;;;;;;;;;5082363;28;20062;-77
2022/10/02 00:14:01;;;;;;;4.75;3.28;;;;;;;;;;5092995;28;20041;-79
2022/10/02 00:16:30;;;;;;;3.38;2.20;;;;;;;;;;5105914;27;20023;-78
2022/10/02 00:18:55;;;;;;;3.67;3.37;;;;;;;;;;5089705;27;20019;-78
2022/10/02 00:21:37;;;;;;;8.02;4.95;;;;;;;;;;5105543;27;20434;-78
2022/10/02 00:24:04;;;;;;;3.80;2.40;;;;;;;;;;5104689;27;20030;-79
2022/10/02 00:26:39;;;;;;;4.32;3.22;;;;;;;;;;5093627;27;20026;-78
2022/10/02 00:29:10;;;;;;;8.88;5.28;;;;;;;;;;5097583;27;20027;-76
2022/10/02 00:31:54;;;;;;;10.18;5.35;;;;;;;;;;5105789;27;20035;-78
2022/10/02 00:34:36;;;;;;;11.48;5.70;;;;;;;;;;5109624;27;20030;-78
2022/10/02 00:37:01;;;;;;;7.47;4.20;;;;;;;;;;5093510;27;20370;-77
2022/10/02 00:39:35;;;;;;;10.52;4.90;;;;;;;;;;5110789;27;20053;-77
2022/10/02 00:42:19;;;;;;;6.00;3.65;;;;;;;;;;5109802;27;20034;-79
2022/10/02 00:44:44;;;;;;;5.60;2.63;;;;;;;;;;5107873;27;20023;-79
2022/10/02 00:47:16;;;;;;;4.35;2.70;;;;;;;;;;5103598;27;20043;-77
2022/10/02 00:50:14;;;;;;;8.18;3.10;;;;;;;;;;5112400;27;20064;-77
2022/10/02 00:52:56;;;;;;;8.27;3.20;;;;;;;;;;5044524;28;20452;-77
2022/10/02 00:55:40;;;;;;;3.90;2.53;;;;;;;;;;5036905;28;20029;-80
2022/10/02 00:58:08;;;;;;;2.83;1.95;;;;;;;;;;5037501;28;20029;-77
2022/10/02 01:00:34;;;;;;;2.60;1.98;;;;;;;;;;5047776;28;20037;-76
2022/10/02 01:03:07;;;;;;;7.82;4.00;;;;;;;;;;5045909;28;20123;-80
2022/10/02 01:05:33;;;;;;;4.63;2.33;;;;;;;;;;5019992;28;20035;-78
2022/10/02 01:07:59;;;;;;;4.10;2.13;;;;;;;;;;5045012;28;20029;-77
2022/10/02 01:10:25;;;;;;;5.40;3.33;;;;;;;;;;5042732;28;20360;-79
2022/10/02 01:12:51;;;;;;;4.25;1.60;;;;;;;;;;5053045;28;20033;-79
2022/10/02 01:15:18;;;;;;;3.33;1.63;;;;;;;;;;5042046;28;20055;-78
2022/10/02 01:17:44;;;;;;;3.80;1.58;;;;;;;;;;5030132;28;20043;-77
2022/10/02 01:20:16;;;;;;;1.55;0.90;;;;;;;;;;5036872;28;20044;-78
2022/10/02 01:22:50;;;;;;;1.77;1.20;;;;;;;;;;5045910;28;20099;-80
2022/10/02 01:25:16;;;;;;;1.27;1.17;;;;;;;;;;5048578;28;20575;-76
2022/10/02 01:27:42;;;;;;;1.42;1.10;;;;;;;;;;5047103;28;20037;-77
2022/10/02 01:30:12;;;;;;;1.33;1.20;;;;;;;;;;5107032;27;20122;-79
2022/10/02 01:32:43;;;;;;;1.50;1.17;;;;;;;;;;5112679;27;20016;-80
2022/10/02 01:35:08;;;;;;;2.92;1.40;;;;;;;;;;5092286;27;20066;-77
2022/10/02 01:37:35;;;;;;;2.10;1.70;;;;;;;;;;5114456;27;20051;-81
2022/10/02 01:40:10;;;;;;;7.07;4.50;;;;;;;;;;5111752;27;20011;-77
2022/10/02 01:42:37;;;;;;;4.97;1.90;;;;;;;;;;5088700;27;20020;-78
2022/10/02 01:45:04;;;;;;;5.20;1.10;;;;;;;;;;5115835;27;20038;-80
2022/10/02 01:47:41;;;;;;;3.22;1.30;;;;;;;;;;5109228;27;20027;-78
2022/10/02 01:50:10;;;;;;;3.45;1.48;;;;;;;;;;5112848;27;20130;-78
2022/10/02 01:52:55;;;;;;;1.98;1.70;;;;;;;;;;5110966;27;20240;-78
2022/10/02 01:55:30;;;;;;;4.50;2.13;;;;;;;;;;5088450;27;20039;-79
2022/10/02 01:58:16;;;;;;;2.28;2.05;;;;;;;;;;5113043;27;20832;-78
2022/10/02 02:00:41;;;;;;;5.38;2.10;;;;;;;;;;5104809;27;20012;-78
2022/10/02 02:03:20;;;;;;;3.65;2.30;;;;;;;;;;5105318;27;20031;-78
2022/10/02 02:05:52;;;;;;;5.93;4.13;;;;;;;;;;5114407;27;20043;-76
2022/10/02 02:08:29;;;;;;;6.68;3.17;;;;;;;;;;5111429;27;20034;-79
2022/10/02 02:11:04;;;;;;;4.43;2.25;;;;;;;;;;5107550;27;20034;-76
2022/10/02 02:13:32;;;;;;;1.88;1.67;;;;;;;;;;5112909;27;20027;-77
2022/10/02 02:16:30;;;;;;;3.20;2.22;;;;;;;;;;5111988;27;20030;-78
2022/10/02 02:19:04;;;;;;;3.53;2.17;;;;;;;;;;5026834;28;20041;-77
2022/10/02 02:21:32;;;;;;;3.55;2.00;;;;;;;;;;5018841;28;20080;-76
2022/10/02 02:24:00;;;;;;;2.97;1.90;;;;;;;;;;5030348;28;20448;-76
2022/10/02 02:26:26;;;;;;;3.60;1.95;;;;;;;;;;5006962;28;20024;-79
2022/10/02 02:28:53;;;;;;;2.42;2.00;;;;;;;;;;5030353;28;20033;-77
2022/10/02 02:31:24;;;;;;;2.35;2.00;;;;;;;;;;5031034;28;20028;-78
2022/10/02 02:33:51;;;;;;;2.35;2.15;;;;;;;;;;5028940;28;20087;-76
2022/10/02 02:36:19;;;;;;;2.95;2.25;;;;;;;;;;5032793;28;20839;-78
2022/10/02 02:38:47;;;;;;;2.35;2.15;;;;;;;;;;5030056;28;20938;-79
2022/10/02 02:41:14;;;;;;;2.97;2.60;;;;;;;;;;5019681;28;20041;-80
2022/10/02 02:43:48;;;;;;;3.05;2.75;;;;;;;;;;5030801;28;20523;-77
2022/10/02 02:46:22;;;;;;;2.83;2.63;;;;;;;;;;5030388;28;20100;-78
2022/10/02 02:48:53;;;;;;;3.70;2.95;;;;;;;;;;5035414;28;20052;-79
2022/10/02 02:51:25;;;;;;;5.22;3.60;;;;;;;;;;5030256;28;20106;-77
2022/10/02 02:54:17;;;;;;;5.93;3.58;;;;;;;;;;5030391;28;20091;-78
2022/10/02 02:56:43;;;;;;;4.57;4.18;;;;;;;;;;5095144;27;20143;-78
2022/10/02 02:59:12;;;;;;;5.63;4.20;;;;;;;;;;5111472;27;20098;-77
2022/10/02 03:01:38;;;;;;;5.75;4.30;;;;;;;;;;5110562;27;20076;-77
2022/10/02 03:04:04;;;;;;;7.47;5.00;;;;;;;;;;5107278;27;20039;-78
2022/10/02 03:06:36;;;;;;;5.03;4.60;;;;;;;;;;5100242;27;20464;-78
2022/10/02 03:09:03;;;;;;;7.72;4.47;;;;;;;;;;5112992;28;20434;-77
2022/10/02 03:11:38;;;;;;;5.70;4.70;;;;;;;;;;5116541;28;20038;-77
2022/10/02 03:14:12;;;;;;;5.50;5.00;;;;;;;;;;5111954;27;20533;-77
2022/10/02 03:16:54;;;;;;;4.82;4.45;;;;;;;;;;5121319;27;20038;-77
2022/10/02 03:19:19;;;;;;;4.78;4.38;;;;;;;;;;5119939;27;20030;-79
2022/10/02 03:22:03;;;;;;;5.28;4.78;;;;;;;;;;5118981;27;20434;-78
2022/10/02 03:24:47;;;;;;;6.03;4.80;;;;;;;;;;5117763;27;20020;-78
2022/10/02 03:27:19;;;;;;;5.97;5.03;;;;;;;;;;5114116;27;20462;-78
2022/10/02 03:29:51;;;;;;;6.28;5.65;;;;;;;;;;5093731;27;20115;-78
2022/10/02 03:32:17;;;;;;;6.75;6.05;;;;;;;;;;5112859;27;20023;-78
2022/10/02 03:34:43;;;;;;;6.43;5.82;;;;;;;;;;5110528;27;20030;-77
2022/10/02 03:37:08;;;;;;;5.72;5.20;;;;;;;;;;5117962;27;20023;-80
2022/10/02 03:39:33;;;;;;;6.00;5.47;;;;;;;;;;5112980;27;20027;-79
2022/10/02 03:41:59;;;;;;;6.50;6.00;;;;;;;;;;5116053;27;20058;-78
2022/10/02 03:44:25;;;;;;;5.95;5.35;;;;;;;;;;5112484;27;20023;-79
2022/10/02 03:46:50;;;;;;;6.38;5.82;;;;;;;;;;5120944;27;20118;-79
2022/10/02 03:49:15;;;;;;;7.68;5.93;;;;;;;;;;5118690;27;20128;-78
2022/10/02 03:51:41;;;;;;;7.47;6.80;;;;;;;;;;5114156;27;20047;-76
2022/10/02 03:54:15;;;;;;;6.97;6.38;;;;;;;;;;5119383;27;20051;-79
2022/10/02 03:56:47;;;;;;;7.53;6.60;;;;;;;;;;5119665;27;20031;-82
2022/10/02 03:59:17;;;;;;;7.18;6.60;;;;;;;;;;5116988;27;20034;-78
2022/10/02 04:01:45;;;;;;;8.00;7.30;;;;;;;;;;5117346;27;20106;-77
2022/10/02 04:04:13;;;;;;;8.80;7.63;;;;;;;;;;5123214;27;20023;-78
2022/10/02 04:07:08;;;;;;;10.37;8.23;;;;;;;;;;5112439;27;20035;-78
2022/10/02 04:09:43;;;;;;;8.18;7.57;;;;;;;;;;4993538;28;20061;-77
2022/10/02 04:12:11;;;;;;;9.88;8.90;;;;;;;;;;4993560;28;20464;-78
2022/10/02 04:14:40;;;;;;;14.85;9.95;;;;;;;;;;4999313;28;20045;-78
2022/10/02 04:17:10;;;;;;;12.10;10.90;;;;;;;;;;4993285;28;20046;-78
2022/10/02 04:19:36;;;;;;;8.88;8.10;;;;;;;;;;4992047;28;20050;-77
2022/10/02 04:22:05;;;;;;;8.48;7.78;;;;;;;;;;4986866;28;20037;-76
2022/10/02 04:24:35;;;;;;;8.25;7.43;;;;;;;;;;4983836;28;20065;-79
2022/10/02 04:27:26;;;;;;;10.20;8.75;;;;;;;;;;4975437;28;20049;-78
2022/10/02 04:29:52;;;;;;;13.52;9.10;;;;;;;;;;4966514;28;20046;-79
2022/10/02 04:32:23;;;;;;;12.45;11.15;;;;;;;;;;4983022;28;20327;-77
2022/10/02 04:34:48;;;;;;;19.63;12.10;;;;;;;;;;4991334;28;20030;-78
2022/10/02 04:37:22;;;;;;;16.20;12.70;;;;;;;;;;4991718;28;20030;-77
2022/10/02 04:39:51;;;;;;;13.25;9.93;;;;;;;;;;4991640;28;20125;-77
2022/10/02 04:42:25;;;;;;;6.70;6.20;;;;;;;;;;4994513;28;20049;-77
2022/10/02 04:44:53;;;;;;;8.70;7.53;;;;;;;;;;4995196;28;20057;-77
2022/10/02 04:47:37;;;;;;;8.52;7.50;;;;;;;;;;5113385;27;20046;-76
2022/10/02 04:50:03;;;;;;;9.55;8.52;;;;;;;;;;5094306;27;20106;-78
2022/10/02 04:52:31;;;;;;;12.77;7.13;;;;;;;;;;5096104;27;20122;-78
2022/10/02 04:55:20;;;;;;;7.80;6.90;;;;;;;;;;5112333;27;20119;-76
2022/10/02 04:57:52;;;;;;;6.13;5.63;;;;;;;;;;5109012;27;20027;-77
2022/10/02 05:00:22;;;;;;;6.95;6.32;;;;;;;;;;5112414;27;20084;-76
2022/10/02 05:02:50;;;;;;;6.68;6.03;;;;;;;;;;5108734;27;20034;-77
2022/10/02 05:05:15;;;;;;;6.25;5.70;;;;;;;;;;5112702;27;20027;-75
2022/10/02 05:07:53;;;;;;;5.38;4.97;;;;;;;;;;5093748;27;20327;-79
2022/10/02 05:10:27;;;;;;;5.80;5.40;;;;;;;;;;5109489;27;20036;-75
2022/10/02 05:13:00;;;;;;;5.63;5.22;;;;;;;;;;5116654;27;20063;-76
2022/10/02 05:15:25;;;;;;;7.38;5.88;;;;;;;;;;5094447;27;20031;-78
2022/10/02 05:18:01;;;;;;;6.10;5.60;;;;;;;;;;5110996;27;20175;-76
2022/10/02 05:20:59;;;;;;;5.88;5.15;;;;;;;;;;5094976;28;20031;-78
2022/10/02 05:23:32;;;;;;;9.30;8.40;;;;;;;;;;5057957;27;20024;-77
2022/10/02 05:26:05;;;;;;;8.80;8.00;;;;;;;;;;5117533;27;20346;-78
2022/10/02 05:28:49;;;;;;;6.78;6.25;;;;;;;;;;5094720;27;20031;-78
2022/10/02 05:31:27;;;;;;;6.45;5.05;;;;;;;;;;5100016;27;20027;-78
2022/10/02 05:34:01;;;;;;;5.30;4.90;;;;;;;;;;5082291;27;20088;-79
2022/10/02 05:36:26;;;;;;;6.07;5.53;;;;;;;;;;5097688;27;20057;-76
2022/10/02 05:38:57;;;;;;;5.57;5.18;;;;;;;;;;5099464;27;20050;-77
2022/10/02 05:41:22;;;;;;;7.05;5.50;;;;;;;;;;5100245;27;20091;-77
2022/10/02 05:43:58;;;;;;;5.57;5.10;;;;;;;;;;5096953;27;20035;-77
2022/10/02 05:46:29;;;;;;;5.70;5.30;;;;;;;;;;5104461;27;20090;-77
2022/10/02 05:48:54;;;;;;;4.68;4.38;;;;;;;;;;5110521;27;20080;-77
2022/10/02 05:51:23;;;;;;;4.35;4.05;;;;;;;;;;5105022;27;20446;-77
2022/10/02 05:53:52;;;;;;;4.47;3.90;;;;;;;;;;5111016;27;20055;-77
2022/10/02 05:56:23;;;;;;;5.85;5.30;;;;;;;;;;5112938;27;20023;-79
2022/10/02 05:58:52;;;;;;;6.07;4.35;;;;;;;;;;5080834;27;20031;-76
2022/10/02 06:01:17;;;;;;;4.43;4.03;;;;;;;;;;5081472;27;20055;-72
2022/10/02 06:03:48;;;;;;;7.40;4.68;;;;;;;;;;5099789;27;20090;-73
2022/10/02 06:06:13;;;;;;;4.38;4.03;;;;;;;;;;5100477;27;20027;-71
2022/10/02 06:08:57;;;;;;;3.92;3.60;;;;;;;;;;5098577;27;20031;-73
2022/10/02 06:11:26;;;;;;;4.13;3.83;;;;;;;;;;5103675;27;20442;-71
2022/10/02 06:13:57;;;;;;;6.82;4.60;;;;;;;;;;5102312;27;20012;-74
2022/10/02 06:16:31;;;;;;;8.52;4.00;;;;;;;;;;5099230;27;20016;-74
2022/10/02 06:19:01;;;;;;;5.45;4.13;;;;;;;;;;5099197;27;20019;-72
2022/10/02 06:21:31;;;;;;;3.58;3.28;;;;;;;;;;5095296;27;20042;-73
2022/10/02 06:23:58;;;;;;;4.50;4.05;;;;;;;;;;5098042;27;20031;-76
2022/10/02 06:26:27;;;;;;;4.15;3.33;;;;;;;;;;5113196;27;20150;-76
2022/10/02 06:29:01;;;;;;;3.65;3.35;;;;;;;;;;5108656;27;20059;-79
2022/10/02 06:31:34;;;;;;;4.40;3.90;;;;;;;;;;5093047;28;20046;-77
2022/10/02 06:34:00;;;;;;;3.88;3.58;;;;;;;;;;5108011;27;20043;-76
2022/10/02 06:36:44;;;;;;;3.90;3.60;;;;;;;;;;5110062;27;20027;-79
2022/10/02 06:39:18;;;;;;;7.03;5.03;;;;;;;;;;5100050;27;20051;-77
2022/10/02 06:41:53;;;;;;;9.52;6.18;;;;;;;;;;5101049;27;20054;-77
2022/10/02 06:44:18;;;;;;;4.68;3.08;;;;;;;;;;5101528;27;20406;-77
2022/10/02 06:46:43;;;;;;;2.97;2.78;;;;;;;;;;5109038;27;20047;-77
2022/10/02 06:49:24;;;;;;;3.00;2.70;;;;;;;;;;5102405;27;20016;-77
2022/10/02 06:52:00;;;;;;;4.35;3.85;;;;;;;;;;5106293;27;20038;-77
2022/10/02 06:54:45;;;;;;;3.10;2.80;;;;;;;;;;5111960;27;20027;-77
2022/10/02 06:57:16;;;;;;;2.60;2.40;;;;;;;;;;5110791;27;20031;-77
2022/10/02 06:59:42;;;;;;;3.13;2.83;;;;;;;;;;5101356;27;20031;-77
2022/10/02 07:02:22;;;;;;;4.18;2.95;;;;;;;;;;5100971;27;20504;-77
2022/10/02 07:04:47;;;;;;;3.65;3.00;;;;;;;;;;5098838;28;20027;-77
2022/10/02 07:07:22;;;;;;;3.00;2.80;;;;;;;;;;5106423;28;20036;-77
2022/10/02 07:09:54;;;;;;;5.03;2.92;;;;;;;;;;5085850;28;20118;-76
2022/10/02 07:12:38;;;;;;;5.13;2.70;;;;;;;;;;5111803;27;20450;-76
2022/10/02 07:15:16;;;;;;;3.00;2.70;;;;;;;;;;5081998;28;20391;-74
2022/10/02 07:17:49;;;;;;;2.75;2.53;;;;;;;;;;5109698;28;20363;-75
2022/10/02 07:20:15;;;;;;;3.67;2.53;;;;;;;;;;5110302;28;20015;-77
2022/10/02 07:22:48;;;;;;;5.13;2.70;;;;;;;;;;5108692;28;20031;-77
2022/10/02 07:25:25;;;;;;;3.33;2.60;;;;;;;;;;5110437;28;20027;-75
2022/10/02 07:27:51;;;;;;;4.03;2.63;;;;;;;;;;5109701;28;20119;-75
2022/10/02 07:30:17;;;;;;;2.90;2.70;;;;;;;;;;5094509;28;20106;-77
2022/10/02 07:32:48;;;;;;;3.13;2.58;;;;;;;;;;5088141;28;20027;-78
2022/10/02 07:35:23;;;;;;;2.88;2.05;;;;;;;;;;5107499;28;20023;-78
2022/10/02 07:37:49;;;;;;;2.90;2.10;;;;;;;;;;5102240;28;20126;-76
2022/10/02 07:40:24;;;;;;;4.05;2.72;;;;;;;;;;5103262;28;20094;-79
2022/10/02 07:42:56;;;;;;;3.97;2.40;;;;;;;;;;5111534;28;20414;-78
2022/10/02 07:45:26;;;;;;;2.30;2.20;;;;;;;;;;5116303;28;20067;-77
2022/10/02 07:47:57;;;;;;;2.85;1.90;;;;;;;;;;5103524;27;20032;-77
2022/10/02 07:50:41;;;;;;;4.90;4.03;;;;;;;;;;5106659;28;20046;-76
2022/10/02 07:53:12;;;;;;;2.30;2.10;;;;;;;;;;5101835;28;20030;-78
2022/10/02 07:55:40;;;;;;;4.40;3.17;;;;;;;;;;5098773;28;20042;-80
2022/10/02 07:58:13;;;;;;;2.83;2.00;;;;;;;;;;5102631;28;20095;-78
2022/10/02 08:00:49;;;;;;;1.95;1.80;;;;;;;;;;5103288;27;20037;-78
2022/10/02 08:03:18;;;;;;;2.67;2.22;;;;;;;;;;5101397;27;20373;-78
2022/10/02 08:05:54;;;;;;;5.00;4.35;;;;;;;;;;5102950;27;20022;-78
2022/10/02 08:08:28;;;;;;;4.75;2.92;;;;;;;;;;5105862;27;20031;-78
2022/10/02 08:11:02;;;;;;;3.83;2.72;;;;;;;;;;5103683;27;20060;-77
2022/10/02 08:13:57;;;;;;;3.53;3.20;;;;;;;;;;5110048;27;21284;-76
2022/10/02 08:16:25;;;;;;;2.38;2.17;;;;;;;;;;4987950;28;20444;-75
2022/10/02 08:19:01;;;;;;;2.75;2.35;;;;;;;;;;4980247;28;20457;-75
2022/10/02 08:21:29;;;;;;;5.28;3.42;;;;;;;;;;4970612;28;20345;-74
2022/10/02 08:24:09;;;;;;;3.77;3.40;;;;;;;;;;4980661;28;20037;-75
2022/10/02 08:26:41;;;;;;;2.95;2.75;;;;;;;;;;4981069;28;20045;-74
2022/10/02 08:29:10;;;;;;;2.55;2.38;;;;;;;;;;4998682;28;20417;-76
2022/10/02 08:31:36;;;;;;;2.50;2.20;;;;;;;;;;4998807;28;20026;-72
2022/10/02 08:34:11;;;;;;;2.28;2.08;;;;;;;;;;5005391;28;20034;-73
2022/10/02 08:36:45;;;;;;;4.30;2.15;;;;;;;;;;4982885;28;20045;-76
2022/10/02 08:39:20;;;;;;;1.75;1.65;;;;;;;;;;4997229;28;20058;-77
2022/10/02 08:42:03;;;;;;;2.10;2.00;;;;;;;;;;4989270;28;20068;-77
2022/10/02 08:44:40;;;;;;;2.60;1.67;;;;;;;;;;4997108;28;20026;-76
2022/10/02 08:47:27;;;;;;;2.28;2.03;;;;;;;;;;4994155;28;20047;-74
2022/10/02 08:49:52;;;;;;;2.17;1.98;;;;;;;;;;4996439;28;20436;-77
2022/10/02 08:52:27;;;;;;;1.98;1.73;;;;;;;;;;5025308;28;20044;-74
2022/10/02 08:55:11;;;;;;;2.78;1.95;;;;;;;;;;5088525;28;20027;-74
2022/10/02 08:57:54;;;;;;;5.35;4.85;;;;;;;;;;5086531;28;20024;-75
2022/10/02 09:00:37;;;;;;;9.90;6.28;;;;;;;;;;5088983;28;20417;-74
2022/10/02 09:03:24;;;;;;;12.85;10.05;;;;;;;;;;5090774;28;20028;-75
2022/10/02 09:05:50;;;;;;;5.72;4.28;;;;;;;;;;5090514;28;20016;-74
2022/10/02 09:08:34;;;;;;;4.05;3.60;;;;;;;;;;5087443;28;20483;-78
2022/10/02 09:11:19;;;;;;;2.35;2.15;;;;;;;;;;5084820;28;20023;-78
2022/10/02 09:14:09;;;;;;;3.72;3.42;;;;;;;;;;5085101;28;20119;-75
2022/10/02 09:16:34;;;;;;;;;;;;;;;;;;5088081;28;20028;-75
2022/10/02 09:19:22;;;;;;;4.83;2.80;;;;;;;;;;5086361;28;20240;-76
2022/10/02 09:21:54;;;;;;;3.75;2.55;;;;;;;;;;5077210;28;20043;-78
2022/10/02 09:24:32;;;;;;;4.38;3.38;;;;;;;;;;5086938;28;20411;-76
2022/10/02 09:27:16;;;;;;;4.68;3.35;;;;;;;;;;5085650;28;20035;-75
2022/10/02 09:30:00;;;;;;;2.70;2.50;;;;;;;;;;5087081;28;20111;-76
2022/10/02 09:32:42;;;;;;;2.70;1.98;;;;;;;;;;5086758;28;20024;-77
2022/10/02 09:35:19;;;;;;;2.90;2.00;;;;;;;;;;5084908;28;20421;-76
2022/10/02 09:38:04;;;;;;;5.97;3.20;;;;;;;;;;5085282;28;20027;-77
2022/10/02 09:40:35;;;;;;;2.42;2.22;;;;;;;;;;5085774;28;20031;-77
2022/10/02 09:43:00;;;;;;;1.90;1.80;;;;;;;;;;5089438;28;20435;-77
2022/10/02 09:45:35;;;;;;;2.65;2.45;;;;;;;;;;5083877;28;20063;-76
2022/10/02 09:48:12;;;;;;;3.15;2.60;;;;;;;;;;5071951;28;20466;-77
2022/10/02 09:50:53;;;;;;;3.40;2.95;;;;;;;;;;5079701;28;20024;-73
2022/10/02 09:53:33;;;;;;;10.70;4.50;;;;;;;;;;5071575;28;20039;-75
2022/10/02 09:55:59;;;;;;;7.30;4.85;;;;;;;;;;5074833;28;20461;-75
2022/10/02 09:58:43;;;;;;;2.67;2.22;;;;;;;;;;5081842;28;20035;-79
2022/10/02 10:01:37;;;;;;;3.35;2.58;;;;;;;;;;5081334;28;20114;-77
2022/10/02 10:04:26;;;;;;;8.23;4.95;;;;;;;;;;5038925;28;20036;-76
2022/10/02 10:06:51;;;;;;;4.38;2.80;;;;;;;;;;5029571;28;20122;-80
2022/10/02 10:09:16;;;;;;;4.35;3.30;;;;;;;;;;5040102;28;20480;-77
2022/10/02 10:11:42;;;;;;;5.82;4.10;;;;;;;;;;5039974;28;20501;-77
2022/10/02 10:14:22;;;;;;;4.70;3.80;;;;;;;;;;5040794;28;20057;-76
2022/10/02 10:16:53;;;;;;;4.03;3.20;;;;;;;;;;5040899;28;20037;-74
2022/10/02 10:19:35;;;;;;;8.68;4.78;;;;;;;;;;5040338;28;20372;-79
2022/10/02 10:22:04;;;;;;;7.90;5.07;;;;;;;;;;5040350;28;20040;-77
2022/10/02 10:24:42;;;;;;;5.05;3.65;;;;;;;;;;5038089;28;20024;-76
2022/10/02 10:27:16;;;;;;;5.63;3.97;;;;;;;;;;5039805;28;20076;-77
2022/10/02 10:29:52;;;;;;;11.57;5.18;;;;;;;;;;5039478;28;20048;-77
2022/10/02 10:32:29;;;;;;;5.28;3.83;;;;;;;;;;5040828;28;20029;-77
2022/10/02 10:35:04;;;;;;;4.05;3.03;;;;;;;;;;5030665;28;20036;-76
2022/10/02 10:40:37;;;;;;;1.90;1.80;;;;;;;;;;5059101;28;20085;-76
2022/10/02 10:43:14;;;;;;;5.70;3.42;;;;;;;;;;5073480;28;20442;-80
2022/10/02 10:45:40;;;;;;;4.53;3.50;;;;;;;;;;5071243;28;20036;-77
2022/10/02 10:48:08;;;;;;;3.47;2.53;;;;;;;;;;5083090;28;20051;-77
2022/10/02 10:50:37;;;;;;;4.75;3.63;;;;;;;;;;5081749;28;20036;-75
2022/10/02 10:53:11;;;;;;;4.28;3.30;;;;;;;;;;5080455;28;20028;-74
2022/10/02 10:55:48;;;;;;;4.30;3.55;;;;;;;;;;5082068;28;20040;-78
2022/10/02 10:58:33;;;;;;;2.72;2.53;;;;;;;;;;5072040;28;20024;-79
2022/10/02 11:00:58;;;;;;;8.68;4.90;;;;;;;;;;5070284;28;20024;-77
2022/10/02 11:03:43;;;;;;;8.77;4.10;;;;;;;;;;5071411;28;20024;-76
2022/10/02 11:06:11;;;;;;;2.17;2.00;;;;;;;;;;5067844;28;20114;-72
2022/10/02 11:08:45;;;;;;;3.83;1.85;;;;;;;;;;5076511;28;20074;-81
2022/10/02 11:11:28;;;;;;;2.55;1.98;;;;;;;;;;5083371;28;20024;-75
2022/10/02 11:14:06;;;;;;;3.08;1.77;;;;;;;;;;5073144;28;20020;-77
2022/10/02 11:16:34;;;;;;;5.63;3.97;;;;;;;;;;5059776;28;20352;-75
2022/10/02 11:18:59;;;;;;;4.53;4.10;;;;;;;;;;5069215;28;20035;-74
2022/10/02 11:21:40;;;;;;;4.00;3.38;;;;;;;;;;5067839;28;20256;-73
2022/10/02 11:24:26;;;;;;;2.88;2.22;;;;;;;;;;5077605;28;20419;-73
2022/10/02 11:27:03;;;;;;;1.98;1.88;;;;;;;;;;5055461;28;20047;-75
2022/10/02 11:29:32;;;;;;;1.50;1.40;;;;;;;;;;5069781;28;20020;-74
2022/10/02 11:32:27;;;;;;;3.05;2.10;;;;;;;;;;5076573;28;20024;-77
2022/10/02 11:35:06;;;;;;;2.53;1.60;;;;;;;;;;5068533;28;20051;-78
2022/10/02 11:37:40;;;;;;;1.98;1.77;;;;;;;;;;5073835;28;20615;-77
2022/10/02 11:40:33;;;;;;;2.13;0.90;;;;;;;;;;5084304;28;20036;-77
2022/10/02 11:43:02;;;;;;;1.00;0.88;;;;;;;;;;5084254;28;20047;-75
2022/10/02 11:45:42;;;;;;;2.27;1.37;;;;;;;;;;5075551;28;20058;-75
2022/10/02 11:48:11;;;;;;;4.90;2.72;;;;;;;;;;5081475;28;20180;-78
2022/10/02 11:50:44;;;;;;;2.65;1.85;;;;;;;;;;5080124;28;20053;-79
2022/10/02 11:53:12;;;;;;;3.08;2.10;;;;;;;;;;5071935;28;20032;-80
2022/10/02 11:55:37;;;;;;;3.65;2.63;;;;;;;;;;5080945;28;20451;-75
2022/10/02 11:58:25;;;;;;;5.57;3.13;;;;;;;;;;5084600;28;20049;-76
2022/10/02 12:01:06;;;;;;;2.15;1.50;;;;;;;;;;5073404;28;20019;-76
2022/10/02 12:03:43;;;;;;;4.53;1.20;;;;;;;;;;5078897;28;20020;-79
2022/10/02 12:06:15;;;;;;;1.08;0.98;;;;;;;;;;5083326;28;20109;-78
2022/10/02 12:09:00;;;;;;;1.63;1.25;;;;;;;;;;5082129;28;20535;-78
2022/10/02 12:11:44;;;;;;;2.47;1.40;;;;;;;;;;5071776;28;20044;-78
2022/10/02 12:14:16;;;;;;;3.10;1.80;;;;;;;;;;5073249;28;20035;-79
2022/10/02 12:16:42;;;;;;;1.92;1.20;;;;;;;;;;5071182;28;20050;-77
2022/10/02 12:19:13;;;;;;;3.88;1.40;;;;;;;;;;5072209;28;20597;-78
2022/10/02 12:26:57;;;;;;;2.03;0.90;;;;;;;;;;5078932;28;20540;-78
2022/10/02 12:27:29;;;;;;;6.38;2.85;;;;;;;;;;5083063;28;20036;-77
2022/10/02 12:30:06;;;;;;;5.37;3.33;;;;;;;;;;5082435;28;20043;-79
2022/10/02 12:32:42;;;;;;;4.93;3.20;;;;;;;;;;5070714;28;20016;-75
2022/10/02 12:35:19;;;;;;;1.90;1.70;;;;;;;;;;5068222;28;20129;-75
2022/10/02 12:37:47;;;;;;;3.08;2.22;;;;;;;;;;5068614;28;20047;-73
2022/10/02 12:40:19;;;;;;;1.55;1.45;;;;;;;;;;5067984;28;20036;-80
2022/10/02 12:42:53;;;;;;;3.72;1.17;;;;;;;;;;5068312;28;20028;-77
2022/10/02 12:45:21;;;;;;;1.15;1.05;;;;;;;;;;5069274;28;20079;-77
2022/10/02 12:48:06;;;;;;;3.35;1.85;;;;;;;;;;5068921;28;21244;-78
2022/10/02 12:50:32;;;;;;;4.28;2.53;;;;;;;;;;5069448;28;20436;-79
2022/10/02 12:53:16;;;;;;;3.00;2.10;;;;;;;;;;5068164;28;20028;-78
2022/10/02 12:56:00;;;;;;;2.78;1.08;;;;;;;;;;5069792;28;20438;-77
2022/10/02 12:58:34;;;;;;;4.82;3.47;;;;;;;;;;5070405;28;20443;-76
2022/10/02 13:01:13;;;;;;;3.25;2.05;;;;;;;;;;5070445;28;20020;-79
2022/10/02 13:03:50;;;;;;;2.10;1.90;;;;;;;;;;5081726;28;20028;-78
2022/10/02 13:06:18;;;;;;;8.68;5.90;;;;;;;;;;5083498;28;20069;-79
2022/10/02 13:08:47;;;;;;;3.28;2.65;;;;;;;;;;5082163;28;20032;-75
2022/10/02 13:11:34;;;;;;;1.20;1.10;;;;;;;;;;5083382;28;20059;-76
2022/10/02 13:14:21;;;;;;;0.93;0.80;;;;;;;;;;5081756;28;20042;-78
2022/10/02 13:16:50;;;;;;;2.58;1.70;;;;;;;;;;5083162;28;20032;-74
2022/10/02 13:19:41;;;;;;;1.60;1.48;;;;;;;;;;5083606;28;20024;-78
2022/10/02 13:22:13;;;;;;;1.40;1.10;;;;;;;;;;5077708;28;20436;-75
2022/10/02 13:24:44;;;;;;;1.38;1.02;;;;;;;;;;5081915;28;20453;-74
2022/10/02 13:27:17;;;;;;;2.00;1.80;;;;;;;;;;5081988;28;20047;-76
2022/10/02 13:30:05;;;;;;;2.90;1.50;;;;;;;;;;5083255;28;20069;-76
2022/10/02 13:32:44;;;;;;;2.38;1.90;;;;;;;;;;5080721;28;20059;-77
2022/10/02 13:35:09;;;;;;;;;;;;;;;;;;5083067;28;20016;-75
2022/10/02 13:37:57;;;;;;;2.30;1.77;;;;;;;;;;5080552;28;19923;-79
2022/10/02 13:40:35;;;;;;;3.40;2.80;;;;;;;;;;5080516;28;20175;-78
2022/10/02 13:43:19;;;;;;;1.73;1.60;;;;;;;;;;5079815;28;20118;-78
2022/10/02 13:45:48;;;;;;;2.20;2.00;;;;;;;;;;5080093;28;20040;-75
2022/10/02 13:48:17;;;;;;;3.60;1.77;;;;;;;;;;5081233;28;20218;-76
2022/10/02 13:50:54;;;;;;;1.30;1.20;;;;;;;;;;5080875;28;20043;-77
2022/10/02 13:53:38;;;;;;;2.97;1.67;;;;;;;;;;5081499;28;20811;-78
2022/10/02 13:56:19;;;;;;;1.60;1.50;;;;;;;;;;5081165;28;20027;-77
2022/10/02 13:58:57;;;;;;;2.20;1.20;;;;;;;;;;5081528;28;20110;-76
2022/10/02 14:01:29;;;;;;;1.10;0.93;;;;;;;;;;5081423;28;20036;-75
2022/10/02 14:04:13;;;;;;;1.58;1.48;;;;;;;;;;5082188;28;20031;-75
2022/10/02 14:06:42;;;;;;;1.33;1.23;;;;;;;;;;5078490;28;20028;-75
2022/10/02 14:09:46;;;;;;;1.13;1.02;;;;;;;;;;5082120;28;20054;-77
2022/10/02 14:12:11;;;;;;;2.50;1.05;;;;;;;;;;5054165;28;20023;-74
2022/10/02 14:14:55;;;;;;;2.95;1.33;;;;;;;;;;5081469;28;20019;-76
2022/10/02 14:17:24;;;;;;;1.70;1.08;;;;;;;;;;5080261;28;20972;-76
2022/10/02 14:20:09;;;;;;;1.50;0.90;;;;;;;;;;5081370;28;20105;-77
2022/10/02 14:22:40;;;;;;;1.00;1.00;;;;;;;;;;5080965;28;20288;-78
2022/10/02 14:25:25;;;;;;;2.70;2.00;;;;;;;;;;5080924;28;20028;-75
2022/10/02 14:28:05;;;;;;;3.10;2.17;;;;;;;;;;5080240;28;20044;-77
2022/10/02 14:30:48;;;;;;;1.98;1.60;;;;;;;;;;5079901;28;20028;-81
2022/10/02 14:33:30;;;;;;;4.05;1.08;;;;;;;;;;5075542;28;20052;-82
2022/10/02 14:36:02;;;;;;;3.45;2.47;;;;;;;;;;5076781;28;20436;-75
2022/10/02 14:38:43;;;;;;;2.78;1.65;;;;;;;;;;5080306;28;20443;-74
2022/10/02 14:41:32;;;;;;;2.92;2.50;;;;;;;;;;5081145;28;20056;-76
2022/10/02 14:44:04;;;;;;;9.40;5.23;;;;;;;;;;5070371;28;20028;-75
2022/10/02 14:46:36;;;;;;;4.53;3.40;;;;;;;;;;5068736;28;20044;-77
2022/10/02 14:49:08;;;;;;;6.40;4.20;;;;;;;;;;5066704;28;20127;-77
2022/10/02 14:51:52;;;;;;;2.22;1.50;;;;;;;;;;5080440;28;20032;-74
2022/10/02 14:54:36;;;;;;;1.88;1.70;;;;;;;;;;5080834;28;20028;-76
2022/10/02 14:57:01;;;;;;;2.88;1.42;;;;;;;;;;5079835;28;20328;-77
2022/10/02 14:59:32;;;;;;;3.40;2.70;;;;;;;;;;5081070;28;20452;-75
2022/10/02 15:02:10;;;;;;;3.55;3.17;;;;;;;;;;5080138;28;20042;-76
2022/10/02 15:04:57;;;;;;;2.30;1.70;;;;;;;;;;5080143;28;20024;-77
2022/10/02 15:07:27;;;;;;;3.65;2.65;;;;;;;;;;5080984;28;20455;-77
2022/10/02 15:10:01;;;;;;;7.45;4.70;;;;;;;;;;5080306;28;20031;-75
2022/10/02 15:12:32;;;;;;;6.35;4.57;;;;;;;;;;5081337;28;20028;-76
2022/10/02 15:15:00;;;;;;;8.07;5.60;;;;;;;;;;5080708;28;20020;-75
2022/10/02 15:20:36;;;;;;;6.68;4.35;;;;;;;;;;5066851;28;20790;-77
2022/10/02 15:23:08;;;;;;;6.80;3.00;;;;;;;;;;5067172;28;20043;-76
2022/10/02 15:25:34;;;;;;;5.70;3.60;;;;;;;;;;5067181;28;20028;-75
2022/10/02 15:28:05;;;;;;;4.38;2.42;;;;;;;;;;5066002;28;20074;-75
2022/10/02 15:30:34;;;;;;;4.35;3.70;;;;;;;;;;5065752;28;20027;-76
2022/10/02 15:33:20;;;;;;;7.30;5.82;;;;;;;;;;5069491;28;20556;-76